• Join FlightAware (Why Join?)
  • Login
  • US Flag 
06:03AM EST


 

Airport Tracker/Info


-or-


 

Live Flight TrackerFlight Track Log ✈ N924AK ✈ 02-May-2013 ✈ KFRG - KMDW

Flight Track Log - Related Links

Times and Time Zones

All times are in EDT time to prevent confusion due to time zone crossing. See the N924AK flight status page for this flight to view local times or setup timezone preferences in your user account.

Time Position Orientation Groundspeed Altitude Reporting Facility
EDT Latitude Longitude Course Direction KTS MPH feet Rate Location/Type
03:46PM 40.6667 -73.4333 304° West 206 237 2,400  Level New York TRACON
03:47PM 40.6500 -73.5000 252° West 255 293 3,800 1,860 Climbing New York TRACON
03:48PM 40.7167 -73.5333 339° North 251 289 6,200 2,460 Climbing New York TRACON
03:49PM 40.8000 -73.5500 351° North 264 304 8,800 2,220 Climbing New York TRACON
03:50PM 40.8667 -73.5500 360° North 277 319 10,700 1,680 Climbing New York TRACON
03:52PM 41.1216 -73.8932 304° West  Level FlightAware Approximate
03:52PM 41.0261 -73.6728 330° Northwest 315 362 14,300  Level New York Center
03:53PM 41.0925 -73.7611 315° West 331 381 16,500 1,980 Climbing New York Center
03:54PM 41.1328 -73.8950 292° West 346 398 18,300 1,680 Climbing New York Center
03:55PM 41.1567 -74.0147 285° West 368 423 19,900 1,680 Climbing New York Center
03:56PM 41.1611 -74.1553 272° West 374 430 21,800 1,980 Climbing New York Center
03:57PM 41.1211 -74.3075 251° West 386 444 24,000 1,980 Climbing New York Center
03:59PM 41.0878 -74.4489 253° West 391 450 25,900 1,800 Climbing New York Center
03:59PM 41.0561 -74.5875 253° West 397 457 27,600 1,620 Climbing New York Center
04:00PM 41.0244 -74.7261 253° West 397 457 29,200 1,560 Climbing New York Center
04:01PM 40.9928 -74.8672 253° West 397 457 30,800 1,560 Climbing New York Center
04:02PM 40.9606 -75.0053 253° West 402 463 32,400 1,620 Climbing New York Center
04:03PM 40.9247 -75.1350 250° West 395 455 34,000 1,560 Climbing New York Center
04:04PM 40.8969 -75.2622 254° West 390 449 35,500 1,320 Climbing New York Center
04:05PM 40.8672 -75.3864 252° West 379 436 36,800 1,080 Climbing New York Center
04:06PM 40.8392 -75.5133 254° West 368 423 37,700 600 Climbing New York Center
04:07PM 40.8092 -75.6375 252° West 368 423 38,000 120 Climbing New York Center
04:08PM 40.7739 -75.7831 252° West 368 423 38,000  Level New York Center
04:09PM 40.7408 -75.9231 253° West 385 443 38,000  Level New York Center
04:10PM 40.7056 -76.0653 252° West 404 465 38,000  Level New York Center
04:11PM 40.6775 -76.2192 257° West 419 482 38,000  Level New York Center
04:13PM 40.6494 -76.3783 257° West 440 506 38,000  Level New York Center
04:13PM 40.6228 -76.5375 258° West 450 518 38,000  Level New York Center
04:14PM 40.5986 -76.6914 258° West 450 518 38,000  Level New York Center
04:15PM 40.5922 -76.8578 267° West 445 512 38,000  Level New York Center
04:16PM 40.6133 -77.0153 280° West 436 502 38,000  Level New York Center
04:17PM 40.6358 -77.1761 280° West 448 516 38,000  Level New York Center
04:18PM 40.6586 -77.3314 281° West 448 516 38,000  Level New York Center
04:19PM 40.6811 -77.4897 281° West 448 516 38,000  Level New York Center
04:22PM 40.7261 -77.8322 280° West 456 525 38,000  Level Cleveland Center
04:23PM 40.7464 -77.9903 280° West 445 512 38,000  Level Cleveland Center
04:24PM 40.7686 -78.1458 281° West 445 512 38,000  Level Cleveland Center
04:25PM 40.7864 -78.3014 279° West 445 512 38,000  Level Cleveland Center
04:26PM 40.8083 -78.4597 280° West 445 512 38,000  Level Cleveland Center
04:27PM 40.8281 -78.6322 279° West 445 512 38,000  Level Cleveland Center
04:28PM 40.8494 -78.7961 280° West 445 512 38,000  Level Cleveland Center
04:29PM 40.8703 -78.9328 281° West 439 505 38,000  Level Cleveland Center
04:30PM 40.8914 -79.0889 280° West 439 505 38,000  Level Cleveland Center
04:31PM 40.9078 -79.2453 278° West 439 505 38,000  Level Cleveland Center
04:32PM 40.9306 -79.4178 280° West 434 499 38,000  Level Cleveland Center
04:33PM 40.9486 -79.5742 279° West 434 499 38,000  Level Cleveland Center
04:34PM 40.9686 -79.7306 280° West 434 499 38,000  Level Cleveland Center
04:35PM 40.9844 -79.8900 278° West 440 506 38,000  Level Cleveland Center
04:36PM 41.0061 -80.0494 280° West 440 506 38,000  Level Cleveland Center
04:37PM 41.0214 -80.2061 277° West 440 506 38,000  Level Cleveland Center
04:38PM 41.0406 -80.3656 279° West 440 506 38,000  Level Cleveland Center
04:39PM 41.0572 -80.5225 278° West 445 512 38,000  Level Cleveland Center
04:40PM 41.0761 -80.6767 279° West 440 506 38,000  Level Cleveland Center
04:42PM 41.1067 -80.9297 278° West  Level FlightAware Approximate
04:45PM 41.1581 -81.4739 277° West 447 514 38,000  Level Cleveland Center
04:46PM 41.1733 -81.6342 280° West 447 514 38,000  Level Cleveland Center
04:47PM 41.1905 -81.7291 280° West  Level Estimated
04:47PM 41.1886 -81.7917 277° West 447 514 38,000  Level Cleveland Center
04:48PM 41.2056 -81.9492 278° West 447 514 38,000  Level Cleveland Center
04:49PM 41.2077 -81.9178 278° West  Level FlightAware Approximate
04:49PM 41.2222 -82.1097 278° West 447 514 38,000  Level Cleveland Center
04:50PM 41.2214 -82.0593 277° West  Level FlightAware Approximate
04:50PM 41.2325 -82.2756 275° West 447 514 38,000  Level Cleveland Center
04:51PM 41.2489 -82.4308 278° West 441 507 38,700 480 Climbing Cleveland Center
04:52PM 41.2606 -82.5914 276° West 441 507 39,000 120 Climbing Cleveland Center
04:53PM 41.2744 -82.7436 277° West 427 491 39,000  Level Cleveland Center
04:54PM 41.3103 -82.7150 280° West  Level Estimated
04:54PM 41.2881 -82.8989 277° West 427 491 39,000  Level Cleveland Center
04:55PM 41.3036 -83.0569 278° West 427 491 39,000  Level Cleveland Center
04:56PM 41.3131 -83.1956 275° West 427 491 39,000  Level Cleveland Center
04:57PM 41.3261 -83.3483 277° West 422 486 39,000  Level Cleveland Center
04:58PM 41.3408 -83.5067 277° West 428 493 39,000  Level Cleveland Center
04:59PM 41.3536 -83.6647 276° West 428 493 39,000  Level Cleveland Center
05:00PM 41.3658 -83.8175 276° West 428 493 39,000 -600 Level Cleveland Center
05:01PM 41.3781 -83.9789 276° West 428 493 37,800 -2,040 Descending Cleveland Center
05:03PM 41.4108 -84.3569 277° West 445 512 32,400 -2,280 Descending Chicago Center
05:04PM 41.4231 -84.5200 276° West 445 512 30,500 -1,200 Descending Chicago Center
05:05PM 41.4350 -84.6853 276° West 446 513 30,000 -300 Descending Chicago Center
05:06PM 41.4472 -84.8533 276° West 455 524 30,000 -420 Level Chicago Center
05:07PM 41.4597 -85.0267 276° West 467 537 29,200 -1,500 Descending Chicago Center
05:08PM 41.4711 -85.2019 275° West 471 542 27,000 -2,220 Descending Chicago Center
05:09PM 41.4822 -85.3686 275° West 455 524 24,700 -2,280 Descending Chicago Center
05:10PM 41.5003 -85.5578 277° West 422 486 22,300 -2,160 Descending Chicago Center
05:11PM 41.5181 -85.7100 279° West 408 470 20,200 -2,100 Descending Chicago Center
05:12PM 41.5208 -85.8572 271° West 396 456 18,000 -2,100 Descending Chicago Center
05:13PM 41.5236 -85.9994 272° West 385 443 15,900 -2,220 Descending Chicago Center
05:14PM 41.5267 -86.1383 272° West 376 433 13,500 -2,280 Descending Chicago Center
05:15PM 41.5531 -86.2750 285° West 376 433 11,200 -1,740 Descending Chicago Center
05:16PM 41.5647 -86.4083 277° West 365 420 10,000 -600 Descending Chicago Center
05:17PM 41.5533 -86.5636 264° West 352 405 10,000 -180 Level Chicago Center
05:18PM 41.5458 -86.6914 266° West 346 398 9,700 -780 Descending Chicago Center
05:20PM 41.5383 -86.8203 266° West 318 366 8,400 -1,260 Descending Chicago Center
05:21PM 41.5311 -86.9233 265° West 284 327 7,200 -1,140 Descending Chicago Center
05:22PM 41.5264 -87.0239 266° West 276 318 6,100 -600 Descending Chicago Center
05:23PM 41.5181 -87.1253 264° West 275 316 6,000 -480 Descending Chicago Center
05:23PM 41.5167 -87.2000 269° West 282 325 5,300 -1,080 Descending Chicago TRACON
05:24PM 41.5333 -87.3000 283° West 280 322 4,300 -660 Descending Chicago TRACON
05:25PM 41.5500 -87.4000 283° West 273 314 4,000 -240 Descending Chicago TRACON
05:26PM 41.5567 -87.4458 281° West 276 318 4,000  Level Chicago Center
05:27PM 41.5706 -87.5436 281° West 273 314 4,000  Level Chicago Center
05:28PM 41.5836 -87.6411 280° West 271 312 4,000  Level Chicago Center
05:29PM 41.5964 -87.7389 280° West 271 312 4,000  Level Chicago Center
05:30PM 41.6025 -87.8311 275° West 229 264 4,000 -480 Level Chicago Center
05:31PM 41.5914 -87.8972 257° West 202 232 3,100 -720 Descending Chicago Center
05:32PM 41.6325 -87.9350 326° Northwest 196 226 2,500 -300 Descending Chicago Center
05:33PM 41.6700 -87.8972 37° Northeast 179 206 2,500  Level Chicago Center
05:34PM 41.7067 -87.8517 43° Northeast 179 206 2,500 -360 Level Chicago Center
05:35PM 41.7397 -87.8103 43° Northeast 152 175 1,800 -780 Descending Chicago Center
05:36PM 41.7667 -87.7833 37° Northeast 128 147 1,200 -840 Descending Chicago TRACON